Airport View

Enter AWOS ICAO identifier for current METAR.

ex. KFNL

KMCK 191929Z AUTO VRB03KT 10SM SCT024 BKN035 BKN110 24/17 A2980 RMK AO2 T02390167

19 Jun 2019 19:56

Frequency: 119.025

Phone: 308-345-1193

Other Area AWOS: KIML - KOIN - KLXN - KCBK

TAF KMCK 191844Z 1919/2018 17006KT P6SM BKN040 FM200200 22007KT P6SM SCT250 FM201500 36011KT P6SM SKC